Time;durP1;ratioP1;P1;durP2;ratioP2;P2;SDS_P1;SDS_P2;PMS_P1;PMS_P2;Temp;Humidity;BMP_temperature;BMP_pressure;BME280_temperature;BME280_humidity;BME280_pressure;Samples;Min_cycle;Max_cycle;Signal;HPM_P1;HPM_P2
2022/02/23 00:00:05;;;;;;;;;;;;;;;19.98;41.61;100638.44;5075757;28;1973;-52
2022/02/23 00:02:31;;;;;;;;;;;;;;;19.04;43.97;100638.03;5075087;28;1077;-52
2022/02/23 00:04:56;;;;;;;;;;;;;;;19.07;43.63;100640.19;5076998;28;1069;-51
2022/02/23 00:07:22;;;;;;;;;;;;;;;17.21;46.71;100648.19;5075980;28;873;-51
2022/02/23 00:09:47;;;;;;;;;;;;;;;17.10;49.10;100645.47;5076347;28;822;-51
2022/02/23 00:12:13;;;;;;;;;;;;;;;19.55;43.09;100644.00;5075946;28;1162;-48
2022/02/23 00:14:38;;;;;;;;;;;;;;;20.22;41.17;100648.56;5075910;28;1041;-52
2022/02/23 00:17:04;;;;;;;;;;;;;;;19.60;42.53;100650.28;5072612;28;1013;-50
2022/02/23 00:19:29;;;;;;;;;;;;;;;18.73;44.33;100652.13;5076212;28;877;-50
2022/02/23 00:21:55;;;;;;;;;;;;;;;18.06;44.96;100646.34;5076176;28;1910;-50
2022/02/23 00:24:20;;;;;;;;;;;;;;;17.32;47.85;100643.47;5076490;28;1011;-52
2022/02/23 00:26:46;;;;;;;;;;;;;;;19.40;43.51;100650.53;5076028;28;738;-52
2022/02/23 00:29:11;;;;;;;;;;;;;;;19.30;43.05;100645.97;5075708;28;772;-50
2022/02/23 00:31:37;;;;;;;;;;;;;;;19.26;43.56;100644.91;5075957;28;950;-50
2022/02/23 00:34:02;;;;;;;;;;;;;;;18.53;44.17;100642.09;5075891;28;794;-51
2022/02/23 00:36:27;;;;;;;;;;;;;;;17.33;46.03;100634.94;5075892;28;799;-52
2022/02/23 00:38:53;;;;;;;;;;;;;;;18.61;45.18;100635.16;5075509;28;869;-50
2022/02/23 00:41:19;;;;;;;;;;;;;;;19.95;41.67;100641.78;5075934;28;1969;-53
2022/02/23 00:43:45;;;;;;;;;;;;;;;18.94;44.12;100633.47;5075740;28;868;-51
2022/02/23 00:46:10;;;;;;;;;;;;;;;19.20;43.19;100637.84;5075376;28;875;-50
2022/02/23 00:48:36;;;;;;;;;;;;;;;17.42;46.60;100627.75;5074353;28;833;-52
2022/02/23 00:51:01;;;;;;;;;;;;;;;17.07;49.27;100629.56;5077670;28;851;-51
2022/02/23 00:53:27;;;;;;;;;;;;;;;19.45;43.18;100637.50;5079985;28;973;-52
2022/02/23 00:55:52;;;;;;;;;;;;;;;19.41;42.97;100646.66;5079847;28;998;-52
2022/02/23 00:58:18;;;;;;;;;;;;;;;19.03;43.70;100641.88;5079818;28;826;-51
2022/02/23 01:00:43;;;;;;;;;;;;;;;18.36;44.85;100645.28;5079547;28;1981;-51
2022/02/23 01:03:08;;;;;;;;;;;;;;;17.20;46.32;100652.03;5079107;28;833;-53
2022/02/23 01:05:35;;;;;;;;;;;;;;;18.46;45.45;100652.63;5079753;28;793;-51
2022/02/23 01:08:01;;;;;;;;;;;;;;;19.94;41.66;100651.19;5079880;28;884;-53
2022/02/23 01:10:26;;;;;;;;;;;;;;;19.28;43.42;100654.53;5079541;28;1075;-50
2022/02/23 01:12:52;;;;;;;;;;;;;;;19.33;43.06;100656.41;5072956;28;1112;-52
2022/02/23 01:15:17;;;;;;;;;;;;;;;17.65;45.84;100652.09;5079080;28;861;-51
2022/02/23 01:17:43;;;;;;;;;;;;;;;17.35;48.41;100665.72;5079701;28;844;-52
2022/02/23 01:20:09;;;;;;;;;;;;;;;19.69;42.47;100664.22;5079421;28;1901;-50
2022/02/23 01:22:34;;;;;;;;;;;;;;;19.48;42.83;100674.69;5079376;28;884;-51
2022/02/23 01:25:00;;;;;;;;;;;;;;;19.11;43.81;100677.06;5079500;28;826;-52
2022/02/23 01:27:25;;;;;;;;;;;;;;;18.36;44.66;100686.59;5079219;28;938;-52
2022/02/23 01:29:51;;;;;;;;;;;;;;;17.04;46.53;100681.47;5078935;28;790;-52
2022/02/23 01:32:16;;;;;;;;;;;;;;;18.28;45.92;100692.69;5079602;28;1041;-51
2022/02/23 01:34:42;;;;;;;;;;;;;;;19.89;42.06;100689.91;5078831;28;1391;-50
2022/02/23 01:37:07;;;;;;;;;;;;;;;19.09;43.50;100701.34;5078920;28;782;-49
2022/02/23 01:39:32;;;;;;;;;;;;;;;19.34;43.21;100701.34;5079344;28;765;-53
2022/02/23 01:41:58;;;;;;;;;;;;;;;17.79;45.72;100703.47;5078348;28;1906;-50
2022/02/23 01:44:23;;;;;;;;;;;;;;;16.72;49.07;100713.66;5077351;28;1284;-52
2022/02/23 01:46:49;;;;;;;;;;;;;;;19.18;43.63;100711.72;5078087;28;1230;-53
2022/02/23 01:49:14;;;;;;;;;;;;;;;19.55;42.74;100716.53;5077466;28;1309;-51
2022/02/23 01:51:40;;;;;;;;;;;;;;;19.21;43.38;100731.28;5079034;28;869;-52
2022/02/23 01:54:05;;;;;;;;;;;;;;;19.03;43.44;100727.31;5078536;28;884;-51
2022/02/23 01:56:31;;;;;;;;;;;;;;;17.43;46.03;100742.09;5078792;28;761;-52
2022/02/23 01:58:56;;;;;;;;;;;;;;;17.73;47.37;100745.81;5111543;28;1469;-49
2022/02/23 02:01:21;;;;;;;;;;;;;;;19.94;41.79;100742.25;5077293;28;1875;-51
2022/02/23 02:03:47;;;;;;;;;;;;;;;19.42;42.61;100747.56;5077802;28;829;-53
2022/02/23 02:06:12;;;;;;;;;;;;;;;19.56;42.72;100743.00;5078545;28;832;-50
2022/02/23 02:08:38;;;;;;;;;;;;;;;18.17;44.90;100735.16;5078226;28;800;-50
2022/02/23 02:11:03;;;;;;;;;;;;;;;17.14;46.23;100732.81;5078675;28;995;-51
2022/02/23 02:13:29;;;;;;;;;;;;;;;18.24;45.94;100738.41;5078126;28;1106;-48
2022/02/23 02:15:54;;;;;;;;;;;;;;;19.91;41.82;100738.16;5078127;28;881;-51
2022/02/23 02:18:19;;;;;;;;;;;;;;;19.42;42.98;100748.41;5078463;28;821;-52
2022/02/23 02:20:45;;;;;;;;;;;;;;;19.68;42.23;100750.84;5077914;28;1914;-50
2022/02/23 02:23:10;;;;;;;;;;;;;;;17.97;45.40;100741.63;5078243;28;785;-53
2022/02/23 02:25:36;;;;;;;;;;;;;;;16.91;47.76;100748.81;5078036;28;856;-46
2022/02/23 02:28:04;;;;;;;;;;;;;;;19.18;43.76;100745.63;5077851;28;841;-51
2022/02/23 02:30:30;;;;;;;;;;;;;;;20.04;41.34;100750.41;5077542;28;868;-48
2022/02/23 02:32:55;;;;;;;;;;;;;;;20.09;41.48;100761.38;5076177;28;827;-52
2022/02/23 02:35:20;;;;;;;;;;;;;;;19.60;42.40;100757.84;5077938;28;828;-51
2022/02/23 02:37:46;;;;;;;;;;;;;;;18.78;43.38;100759.47;5077749;28;850;-50
2022/02/23 02:40:11;;;;;;;;;;;;;;;17.73;44.65;100765.06;5077980;28;1902;-49
2022/02/23 02:42:37;;;;;;;;;;;;;;;17.23;48.17;100778.69;5077626;28;1067;-46
2022/02/23 02:45:02;;;;;;;;;;;;;;;19.55;42.89;100779.97;5077861;28;784;-50
2022/02/23 02:47:28;;;;;;;;;;;;;;;19.44;42.96;100783.94;5077956;28;1009;-50
2022/02/23 02:49:53;;;;;;;;;;;;;;;19.53;42.79;100784.13;5077748;28;1449;-48
2022/02/23 02:52:19;;;;;;;;;;;;;;;18.46;44.39;100780.09;5077788;28;746;-49
2022/02/23 02:54:44;;;;;;;;;;;;;;;17.33;45.99;100783.34;5077850;28;785;-50
2022/02/23 02:57:10;;;;;;;;;;;;;;;18.38;45.71;100779.88;5077119;28;816;-52
2022/02/23 02:59:35;;;;;;;;;;;;;;;19.97;41.81;100789.41;5077199;28;955;-51
2022/02/23 03:02:01;;;;;;;;;;;;;;;19.45;42.79;100791.94;5077233;28;1976;-51
2022/02/23 03:04:26;;;;;;;;;;;;;;;19.11;43.50;100798.34;5077150;28;734;-50
2022/02/23 03:06:52;;;;;;;;;;;;;;;17.40;46.78;100800.41;5077549;28;810;-48
2022/02/23 03:09:17;;;;;;;;;;;;;;;16.70;48.85;100800.94;5077580;28;734;-49
2022/02/23 03:11:43;;;;;;;;;;;;;;;18.74;44.91;100794.22;5076701;28;1020;-49
2022/02/23 03:14:08;;;;;;;;;;;;;;;19.61;42.39;100789.00;5076853;28;977;-49
2022/02/23 03:16:34;;;;;;;;;;;;;;;19.13;43.57;100787.03;5077254;28;906;-48
2022/02/23 03:18:59;;;;;;;;;;;;;;;19.15;43.26;100785.63;5076922;28;845;-48
2022/02/23 03:21:25;;;;;;;;;;;;;;;17.35;46.55;100785.81;5077548;28;1917;-47
2022/02/23 03:23:50;;;;;;;;;;;;;;;17.75;47.30;100778.53;5077105;28;828;-50
2022/02/23 03:26:15;;;;;;;;;;;;;;;19.82;41.93;100781.31;5076352;28;1080;-45
2022/02/23 03:28:41;;;;;;;;;;;;;;;19.32;42.89;100785.19;5077087;28;830;-50
2022/02/23 03:31:07;;;;;;;;;;;;;;;19.62;42.34;100788.69;5076746;28;890;-49
2022/02/23 03:33:33;;;;;;;;;;;;;;;18.20;44.55;100784.13;5076591;28;898;-51
2022/02/23 03:35:58;;;;;;;;;;;;;;;17.27;46.31;100790.78;5076697;28;809;-47
2022/02/23 03:38:24;;;;;;;;;;;;;;;18.81;44.33;100794.69;5077019;28;833;-48
2022/02/23 03:40:49;;;;;;;;;;;;;;;19.72;42.12;100807.06;5076709;28;1964;-51
2022/02/23 03:43:17;;;;;;;;;;;;;;;19.44;42.46;100806.81;5076854;28;823;-52
2022/02/23 03:45:43;;;;;;;;;;;;;;;19.33;42.81;100799.78;5075552;28;1547;-50
2022/02/23 03:48:08;;;;;;;;;;;;;;;17.89;44.86;100795.25;5076114;28;877;-48
2022/02/23 03:50:34;;;;;;;;;;;;;;;17.55;47.33;100793.19;5076288;28;856;-47
2022/02/23 03:52:59;;;;;;;;;;;;;;;19.69;42.35;100791.09;5076592;28;929;-47
2022/02/23 03:55:25;;;;;;;;;;;;;;;19.30;43.02;100787.38;5076135;28;820;-50
2022/02/23 03:57:50;;;;;;;;;;;;;;;19.77;41.96;100801.50;5076267;28;845;-49
2022/02/23 04:00:16;;;;;;;;;;;;;;;18.43;44.23;100793.63;5068481;28;1984;-47
2022/02/23 04:02:44;;;;;;;;;;;;;;;16.92;46.55;100811.69;5075506;28;1075;-47
2022/02/23 04:05:10;;;;;;;;;;;;;;;18.11;46.48;100820.50;5076382;28;747;-50
2022/02/23 04:07:35;;;;;;;;;;;;;;;19.86;41.69;100820.19;5076838;28;943;-50
2022/02/23 04:10:01;;;;;;;;;;;;;;;19.41;42.70;100818.44;5075826;28;1098;-52
2022/02/23 04:12:26;;;;;;;;;;;;;;;19.36;42.91;100812.97;5076321;28;1280;-49
2022/02/23 04:14:52;;;;;;;;;;;;;;;17.48;46.19;100814.66;5076004;28;1226;-50
2022/02/23 04:17:17;;;;;;;;;;;;;;;16.88;47.87;100816.09;5075537;28;827;-46
2022/02/23 04:19:43;;;;;;;;;;;;;;;18.86;44.29;100818.66;5076256;28;1909;-51
2022/02/23 04:22:08;;;;;;;;;;;;;;;19.54;42.41;100816.91;5075681;28;1123;-51
2022/02/23 04:24:34;;;;;;;;;;;;;;;19.30;43.04;100823.22;5075155;28;837;-52
2022/02/23 04:27:00;;;;;;;;;;;;;;;19.13;42.92;100811.84;5074969;28;983;-53
2022/02/23 04:29:26;;;;;;;;;;;;;;;17.04;46.43;100819.69;5073221;28;816;-53
2022/02/23 04:31:51;;;;;;;;;;;;;;;17.07;48.73;100830.09;5075650;28;902;-50
2022/02/23 04:34:16;;;;;;;;;;;;;;;19.42;43.06;100831.13;5075901;28;871;-52
2022/02/23 04:36:42;;;;;;;;;;;;;;;19.28;42.92;100832.94;5075702;28;883;-49
2022/02/23 04:39:08;;;;;;;;;;;;;;;19.25;43.07;100839.00;5076114;28;797;-52
2022/02/23 04:41:34;;;;;;;;;;;;;;;18.10;45.05;100837.28;5075664;28;1957;-50
2022/02/23 04:43:59;;;;;;;;;;;;;;;17.07;46.06;100845.78;5075521;28;1316;-53
2022/02/23 04:46:25;;;;;;;;;;;;;;;18.69;44.70;100846.59;5075810;28;961;-51
2022/02/23 04:48:51;;;;;;;;;;;;;;;19.67;42.02;100845.75;5075247;28;817;-51
2022/02/23 04:51:16;;;;;;;;;;;;;;;19.01;43.61;100853.53;5075824;28;921;-52
2022/02/23 04:53:42;;;;;;;;;;;;;;;19.21;43.05;100846.19;5075823;28;892;-53
2022/02/23 04:56:07;;;;;;;;;;;;;;;17.33;46.05;100856.75;5074331;28;1260;-54
2022/02/23 04:58:33;;;;;;;;;;;;;;;16.89;49.32;100860.88;5075842;28;1261;-53
2022/02/23 05:00:58;;;;;;;;;;;;;;;19.25;43.23;100864.66;5077570;28;1910;-52
2022/02/23 05:03:24;;;;;;;;;;;;;;;19.22;43.00;100861.63;5074312;28;1356;-55
2022/02/23 05:05:50;;;;;;;;;;;;;;;19.58;42.31;100861.31;5075334;28;1392;-55
2022/02/23 05:08:16;;;;;;;;;;;;;;;18.49;43.90;100863.25;5075000;28;1490;-55
2022/02/23 05:10:42;;;;;;;;;;;;;;;17.12;46.40;100877.91;5075602;28;953;-55
2022/02/23 05:13:08;;;;;;;;;;;;;;;18.16;45.72;100876.63;5075689;28;1105;-55
2022/02/23 05:15:34;;;;;;;;;;;;;;;19.84;41.55;100883.94;5073656;28;1320;-55
2022/02/23 05:17:59;;;;;;;;;;;;;;;19.11;43.19;100881.03;5074969;28;1450;-55
2022/02/23 05:20:27;;;;;;;;;;;;;;;19.39;42.43;100891.53;5074363;28;1913;-55
2022/02/23 05:22:52;;;;;;;;;;;;;;;17.73;45.21;100890.78;5075194;28;1273;-55
2022/02/23 05:25:18;;;;;;;;;;;;;;;16.82;47.86;100901.50;5074968;28;1384;-55
2022/02/23 05:27:43;;;;;;;;;;;;;;;19.00;43.75;100896.00;5073117;28;1316;-56
2022/02/23 05:30:09;;;;;;;;;;;;;;;19.26;42.52;100906.81;5072658;28;1619;-56
2022/02/23 05:32:38;;;;;;;;;;;;;;;19.35;42.61;100907.84;5073462;28;1502;-56
2022/02/23 05:35:04;;;;;;;;;;;;;;;18.70;43.35;100913.53;5074348;28;1205;-56
2022/02/23 05:37:29;;;;;;;;;;;;;;;17.07;46.11;100918.03;5076388;28;1423;-56
2022/02/23 05:39:55;;;;;;;;;;;;;;;17.85;46.35;100923.47;5077433;28;1899;-55
2022/02/23 05:42:20;;;;;;;;;;;;;;;19.77;41.75;100925.66;5077903;28;1328;-56
2022/02/23 05:44:46;;;;;;;;;;;;;;;19.08;43.26;100924.88;5077579;28;1355;-56
2022/02/23 05:47:11;;;;;;;;;;;;;;;19.50;42.06;100942.72;5078336;28;1197;-56
2022/02/23 05:49:37;;;;;;;;;;;;;;;17.76;45.41;100945.22;5078546;28;1371;-56
2022/02/23 05:52:02;;;;;;;;;;;;;;;16.84;47.33;100952.28;5077986;28;1269;-56
2022/02/23 05:54:28;;;;;;;;;;;;;;;18.92;43.75;100948.97;5110699;28;1280;-56
2022/02/23 05:56:54;;;;;;;;;;;;;;;19.54;42.14;100954.81;5078309;28;1323;-56
2022/02/23 05:59:20;;;;;;;;;;;;;;;19.14;42.89;100948.53;5077624;28;1320;-56
2022/02/23 06:01:45;;;;;;;;;;;;;;;19.19;42.90;100950.44;5078064;28;1918;-56
2022/02/23 06:04:11;;;;;;;;;;;;;;;17.39;45.92;100960.06;5078533;28;1338;-56
2022/02/23 06:06:36;;;;;;;;;;;;;;;17.18;48.29;100961.97;5078564;28;1167;-56
2022/02/23 06:09:02;;;;;;;;;;;;;;;19.51;42.36;100960.13;5077133;28;1331;-55
2022/02/23 06:11:27;;;;;;;;;;;;;;;19.37;42.17;100958.00;5077652;28;1158;-55
2022/02/23 06:13:53;;;;;;;;;;;;;;;19.10;43.31;100962.06;5077248;28;1213;-55
2022/02/23 06:16:22;;;;;;;;;;;;;;;18.44;43.99;100966.81;5078046;28;1493;-56
2022/02/23 06:18:48;;;;;;;;;;;;;;;17.36;45.71;100969.72;5077015;28;1379;-55
2022/02/23 06:21:13;;;;;;;;;;;;;;;18.55;44.47;100969.50;5077640;28;1975;-55
2022/02/23 06:23:39;;;;;;;;;;;;;;;20.03;41.14;100979.78;5077943;28;1221;-56
2022/02/23 06:26:05;;;;;;;;;;;;;;;19.32;42.54;100980.09;5077008;28;1173;-56
2022/02/23 06:28:31;;;;;;;;;;;;;;;19.21;42.71;100986.78;5078167;28;757;-56
2022/02/23 06:30:57;;;;;;;;;;;;;;;17.79;45.34;100995.00;5077554;28;884;-56
2022/02/23 06:33:23;;;;;;;;;;;;;;;17.47;47.68;101002.69;5078140;28;809;-56
2022/02/23 06:35:50;;;;;;;;;;;;;;;19.43;42.69;100997.41;5076573;28;1164;-55
2022/02/23 06:38:15;;;;;;;;;;;;;;;20.07;40.93;100998.22;5075342;28;1268;-56
2022/02/23 06:40:40;;;;;;;;;;;;;;;20.09;40.80;101009.81;5077814;28;1909;-56
2022/02/23 06:43:06;;;;;;;;;;;;;;;19.54;41.84;101010.00;5078093;28;753;-56
2022/02/23 06:45:31;;;;;;;;;;;;;;;17.71;45.00;101011.22;5077383;28;1248;-61
2022/02/23 06:47:57;;;;;;;;;;;;;;;17.22;44.76;101018.06;5076856;28;1389;-62
2022/02/23 06:50:23;;;;;;;;;;;;;;;17.78;46.56;101020.00;5082141;28;1569;-65
2022/02/23 06:52:48;;;;;;;;;;;;;;;18.73;44.00;101018.47;5078062;28;1558;-62
2022/02/23 06:55:15;;;;;;;;;;;;;;;18.91;43.56;101030.78;5075488;28;1194;-65
2022/02/23 06:57:41;;;;;;;;;;;;;;;17.92;45.63;101031.31;5075394;28;1353;-64
2022/02/23 07:00:07;;;;;;;;;;;;;;;17.93;45.74;101038.47;5075551;28;1937;-63
2022/02/23 07:02:33;;;;;;;;;;;;;;;17.75;45.97;101039.81;5082147;28;1204;-63
2022/02/23 07:04:58;;;;;;;;;;;;;;;17.14;47.24;101043.31;5082796;28;1518;-64
2022/02/23 07:07:24;;;;;;;;;;;;;;;18.19;45.49;101054.94;5077131;28;1101;-63
2022/02/23 07:09:49;;;;;;;;;;;;;;;19.96;41.27;101040.84;5073942;28;1217;-62
2022/02/23 07:12:15;;;;;;;;;;;;;;;19.46;41.98;101051.97;5084222;28;1462;-62
2022/02/23 07:14:40;;;;;;;;;;;;;;;19.52;42.09;101061.03;5079593;28;1367;-62
2022/02/23 07:17:06;;;;;;;;;;;;;;;18.39;43.61;101067.88;5076994;28;1208;-61
2022/02/23 07:19:33;;;;;;;;;;;;;;;17.05;46.90;101074.06;5074360;28;1324;-62
2022/02/23 07:21:58;;;;;;;;;;;;;;;18.72;44.18;101066.41;5076755;28;1913;-62
2022/02/23 07:24:23;;;;;;;;;;;;;;;19.71;41.55;101074.97;5077879;28;1334;-62
2022/02/23 07:26:49;;;;;;;;;;;;;;;19.00;43.23;101077.88;5107556;28;1488;-62
2022/02/23 07:29:14;;;;;;;;;;;;;;;19.11;42.67;101079.50;5074803;28;1307;-64
2022/02/23 07:31:40;;;;;;;;;;;;;;;17.61;44.90;101080.78;5075599;28;1417;-65
2022/02/23 07:34:06;;;;;;;;;;;;;;;17.81;46.27;101087.41;5077605;28;1310;-64
2022/02/23 07:36:32;;;;;;;;;;;;;;;19.74;41.59;101083.50;5077459;28;1377;-62
2022/02/23 07:38:58;;;;;;;;;;;;;;;19.27;42.64;101087.69;5073894;28;1183;-66
2022/02/23 07:41:24;;;;;;;;;;;;;;;19.39;42.19;101085.41;5106573;28;1905;-59
2022/02/23 07:43:50;;;;;;;;;;;;;;;18.31;43.80;101088.50;5077344;28;1358;-62
2022/02/23 07:46:16;;;;;;;;;;;;;;;17.07;46.30;101093.06;5073438;28;1377;-61
2022/02/23 07:48:41;;;;;;;;;;;;;;;18.88;43.62;101093.91;5076179;28;1380;-62
2022/02/23 07:51:07;;;;;;;;;;;;;;;19.67;41.59;101094.06;5077813;28;1363;-63
2022/02/23 07:53:33;;;;;;;;;;;;;;;19.10;42.80;101107.34;5075848;28;1530;-60
2022/02/23 07:55:58;;;;;;;;;;;;;;;18.77;43.47;101102.16;5073511;28;1597;-59
2022/02/23 07:58:23;;;;;;;;;;;;;;;17.37;45.50;101107.97;5076638;28;1344;-61
2022/02/23 08:00:49;;;;;;;;;;;;;;;18.07;45.72;101113.03;5075275;28;1905;-59
2022/02/23 08:03:14;;;;;;;;;;;;;;;19.91;41.01;101107.97;5074453;28;1510;-64
2022/02/23 08:05:40;;;;;;;;;;;;;;;19.52;41.97;101119.78;5074909;28;1276;-64
2022/02/23 08:08:06;;;;;;;;;;;;;;;19.64;41.58;101113.91;5075196;28;1397;-62
2022/02/23 08:10:31;;;;;;;;;;;;;;;18.33;44.95;101119.38;5078370;28;1290;-62
2022/02/23 08:12:58;;;;;;;;;;;;;;;17.83;46.56;101116.31;5075541;28;1407;-63
2022/02/23 08:20:53;;;;;;;;;;;;;;;20.57;41.43;101119.50;5048433;28;1910;-66
2022/02/23 08:23:18;;;;;;;;;;;;;;;20.81;40.88;101127.84;5044837;28;1506;-65
2022/02/23 08:25:44;;;;;;;;;;;;;;;21.02;40.44;101124.84;5053728;28;1513;-67
2022/02/23 08:28:09;;;;;;;;;;;;;;;21.18;39.99;101126.28;5051546;28;1387;-68
2022/02/23 08:30:35;;;;;;;;;;;;;;;20.81;40.42;101125.06;5051058;28;1391;-65
2022/02/23 08:33:03;;;;;;;;;;;;;;;21.39;39.45;101125.19;5054351;28;1233;-65
2022/02/23 08:35:32;;;;;;;;;;;;;;;20.90;40.03;101125.28;5042379;28;1366;-65
2022/02/23 08:37:57;;;;;;;;;;;;;;;19.68;42.49;101120.50;5052933;28;1273;-64
2022/02/23 08:40:23;;;;;;;;;;;;;;;19.09;41.67;101130.47;5057194;28;1902;-66
2022/02/23 08:42:48;;;;;;;;;;;;;;;18.27;39.93;101125.97;5053966;28;1250;-63
2022/02/23 08:45:13;;;;;;;;;;;;;;;17.94;38.62;101133.69;5055153;28;1286;-62
2022/02/23 08:47:39;;;;;;;;;;;;;;;17.82;40.30;101135.84;5057624;28;1206;-57
2022/02/23 08:50:05;;;;;;;;;;;;;;;18.60;44.55;101143.00;5058034;28;1239;-62
2022/02/23 08:52:30;;;;;;;;;;;;;;;18.68;45.41;101153.44;5061724;28;1182;-63
2022/02/23 08:54:56;;;;;;;;;;;;;;;18.36;45.51;101146.34;5060417;28;1509;-60
2022/02/23 08:57:21;;;;;;;;;;;;;;;18.65;46.57;101154.03;5063021;28;1341;-61
2022/02/23 08:59:47;;;;;;;;;;;;;;;19.36;45.50;101143.84;5054503;28;1507;-60
2022/02/23 09:02:12;;;;;;;;;;;;;;;19.55;44.74;101149.56;5055853;28;1931;-59
2022/02/23 09:04:38;;;;;;;;;;;;;;;19.66;44.64;101147.56;5052351;28;1480;-60
2022/02/23 09:07:03;;;;;;;;;;;;;;;19.34;45.16;101143.34;5055490;28;1371;-60
2022/02/23 09:09:31;;;;;;;;;;;;;;;19.13;45.87;101148.94;5050798;28;1459;-63
2022/02/23 09:11:57;;;;;;;;;;;;;;;18.95;45.19;101147.63;5059935;28;1342;-63
2022/02/23 09:14:22;;;;;;;;;;;;;;;18.52;44.15;101152.63;5074483;28;1294;-61
2022/02/23 09:16:48;;;;;;;;;;;;;;;18.25;42.89;101145.50;5077395;28;1177;-61
2022/02/23 09:19:13;;;;;;;;;;;;;;;18.31;48.91;101146.31;5077521;28;1201;-64
2022/02/23 09:21:39;;;;;;;;;;;;;;;19.61;46.45;101155.88;5078134;28;1917;-65
2022/02/23 09:24:05;;;;;;;;;;;;;;;20.66;43.36;101148.16;5081238;28;1607;-63
2022/02/23 09:26:30;;;;;;;;;;;;;;;21.07;42.42;101154.34;5079227;28;1297;-61
2022/02/23 09:28:56;;;;;;;;;;;;;;;21.33;41.53;101146.56;5081099;28;1415;-61
2022/02/23 09:31:21;;;;;;;;;;;;;;;21.51;41.33;101151.28;5078416;28;1309;-65
2022/02/23 09:33:51;;;;;;;;;;;;;;;20.76;42.84;101150.03;5077573;28;1386;-62
2022/02/23 09:36:16;;;;;;;;;;;;;;;20.40;43.74;101157.78;5084285;28;1443;-64
2022/02/23 09:38:41;;;;;;;;;;;;;;;19.58;45.30;101150.94;5082305;28;1427;-68
2022/02/23 09:41:09;;;;;;;;;;;;;;;20.15;44.48;101151.38;5086207;28;1973;-67
2022/02/23 09:43:35;;;;;;;;;;;;;;;20.89;42.30;101155.94;5079313;28;1526;-64
2022/02/23 09:46:01;;;;;;;;;;;;;;;21.13;41.58;101159.53;5078299;28;836;-64
2022/02/23 09:48:28;;;;;;;;;;;;;;;21.35;41.11;101156.22;5109795;28;1231;-63
2022/02/23 09:50:54;;;;;;;;;;;;;;;21.46;40.87;101156.91;5074860;28;1514;-63
2022/02/23 09:53:20;;;;;;;;;;;;;;;21.60;40.44;101150.66;5077290;28;1262;-63
2022/02/23 09:55:45;;;;;;;;;;;;;;;21.75;40.07;101161.50;5077695;28;1209;-63
2022/02/23 09:58:11;;;;;;;;;;;;;;;21.84;39.64;101158.91;5076499;28;1260;-63
2022/02/23 10:00:36;;;;;;;;;;;;;;;20.74;42.12;101155.00;5077085;28;1963;-63
2022/02/23 10:03:02;;;;;;;;;;;;;;;20.76;42.19;101152.78;5077561;28;1542;-63
2022/02/23 10:05:28;;;;;;;;;;;;;;;19.68;44.53;101148.09;5078700;28;1234;-63
2022/02/23 10:08:03;;;;;;;;;;;;;;;20.16;43.75;101147.50;5108682;27;1220;-63
2022/02/23 10:10:29;;;;;;;;;;;;;;;21.08;41.27;101154.06;5078820;28;779;-56
2022/02/23 10:12:55;;;;;;;;;;;;;;;21.43;40.55;101149.19;5078419;28;1064;-55
2022/02/23 10:15:20;;;;;;;;;;;;;;;21.69;39.67;101151.63;5075476;28;1284;-55
2022/02/23 10:17:47;;;;;;;;;;;;;;;21.81;39.52;101154.78;5077614;28;1522;-55
2022/02/23 10:20:19;;;;;;;;;;;;;;;21.95;39.17;101152.06;5073740;28;1965;-56
2022/02/23 10:22:45;;;;;;;;;;;;;;;21.06;40.87;101149.97;5077652;28;808;-57
2022/02/23 10:25:11;;;;;;;;;;;;;;;20.63;41.99;101145.97;5078347;28;872;-56
2022/02/23 10:27:37;;;;;;;;;;;;;;;20.24;42.83;101148.81;5077998;28;875;-57
2022/02/23 10:30:03;;;;;;;;;;;;;;;19.56;44.67;101139.34;5070601;28;1328;-56
2022/02/23 10:32:28;;;;;;;;;;;;;;;20.84;41.57;101141.06;5077886;28;1558;-56
2022/02/23 10:34:55;;;;;;;;;;;;;;;21.35;40.14;101127.75;5077961;28;932;-57
2022/02/23 10:37:21;;;;;;;;;;;;;;;21.60;39.75;101129.34;5077244;28;1293;-55
2022/02/23 10:39:53;;;;;;;;;;;;;;;21.78;39.45;101121.31;5077030;28;1312;-66
2022/02/23 10:42:20;;;;;;;;;;;;;;;21.95;38.84;101118.84;5080081;28;1906;-67
2022/02/23 10:44:46;;;;;;;;;;;;;;;20.79;41.18;101115.41;5075351;28;801;-67
2022/02/23 10:47:22;;;;;;;;;;;;;;;20.60;42.04;101112.56;5077293;28;1158;-64
2022/02/23 10:50:22;;;;;;;;;;;;;;;19.67;43.87;101111.41;5075922;28;1374;-66
2022/02/23 10:52:55;;;;;;;;;;;;;;;20.58;41.96;101112.03;5053075;28;1450;-65
2022/02/23 10:55:24;;;;;;;;;;;;;;;21.33;40.26;101107.84;5076963;28;1273;-66
2022/02/23 10:57:51;;;;;;;;;;;;;;;21.66;39.47;101111.53;5077517;28;1380;-67
2022/02/23 11:00:30;;;;;;;;;;;;;;;21.89;39.07;101106.19;5076385;28;1898;-68
2022/02/23 11:02:56;;;;;;;;;;;;;;;22.08;38.82;101100.63;5069979;28;1061;-63
2022/02/23 11:05:24;;;;;;;;;;;;;;;22.15;38.53;101095.50;5075954;28;1385;-61
2022/02/23 11:07:56;;;;;;;;;;;;;;;20.79;41.70;101093.31;5070999;28;1135;-62
2022/02/23 11:10:21;;;;;;;;;;;;;;;20.47;42.42;101095.56;5076925;28;1028;-60
2022/02/23 11:12:48;;;;;;;;;;;;;;;19.35;45.29;101100.03;5074601;28;1294;-64
2022/02/23 11:15:19;;;;;;;;;;;;;;;20.48;42.62;101094.47;5073646;28;1286;-63
2022/02/23 11:17:45;;;;;;;;;;;;;;;21.29;40.54;101092.97;5074409;28;1319;-63
2022/02/23 11:20:11;;;;;;;;;;;;;;;21.63;39.79;101097.47;5073570;28;1987;-64
2022/02/23 11:22:37;;;;;;;;;;;;;;;21.86;39.01;101095.72;5101766;28;1221;-63
2022/02/23 11:25:03;;;;;;;;;;;;;;;22.02;38.81;101091.59;5078749;28;1674;-65
2022/02/23 11:27:28;;;;;;;;;;;;;;;20.82;41.46;101085.25;5075317;28;1403;-60
2022/02/23 11:30:04;;;;;;;;;;;;;;;20.70;41.80;101084.03;5074678;28;1218;-63
2022/02/23 11:32:30;;;;;;;;;;;;;;;19.52;44.17;101074.81;5076024;28;1291;-63
2022/02/23 11:34:56;;;;;;;;;;;;;;;20.31;43.06;101083.03;5075682;28;1288;-63
2022/02/23 11:37:21;;;;;;;;;;;;;;;21.18;40.90;101079.28;5075731;28;1233;-65
2022/02/23 11:39:48;;;;;;;;;;;;;;;21.56;39.88;101077.66;5106058;28;1447;-65
2022/02/23 11:42:19;;;;;;;;;;;;;;;21.82;39.38;101078.88;5074669;28;1909;-68
2022/02/23 11:44:49;;;;;;;;;;;;;;;21.99;38.88;101077.50;5070311;28;1499;-70
2022/02/23 11:47:17;;;;;;;;;;;;;;;20.78;41.47;101078.69;5073614;28;1181;-69
2022/02/23 11:49:50;;;;;;;;;;;;;;;20.54;41.94;101075.06;5077052;28;1309;-63
2022/02/23 11:52:16;;;;;;;;;;;;;;;19.47;44.49;101075.69;5073035;28;1305;-68
2022/02/23 11:54:57;;;;;;;;;;;;;;;20.66;42.03;101072.72;5075264;28;1266;-69
2022/02/23 11:57:38;;;;;;;;;;;;;;;21.40;40.12;101074.28;5076365;28;1175;-67
2022/02/23 12:00:04;;;;;;;;;;;;;;;21.75;39.40;101081.22;5075061;28;1898;-70
2022/02/23 12:02:30;;;;;;;;;;;;;;;21.93;38.82;101078.75;5075266;28;1276;-66
2022/02/23 12:04:56;;;;;;;;;;;;;;;21.30;40.08;101083.53;5073831;28;1166;-67
2022/02/23 12:07:22;;;;;;;;;;;;;;;20.58;41.67;101087.16;5074701;28;1221;-68
2022/02/23 12:09:57;;;;;;;;;;;;;;;20.21;42.41;101085.91;5076152;28;1260;-70
2022/02/23 12:12:32;;;;;;;;;;;;;;;19.69;43.80;101100.09;5074742;28;1280;-65
2022/02/23 12:14:59;;;;;;;;;;;;;;;21.48;39.97;101104.84;5075339;28;1201;-66
2022/02/23 12:17:42;;;;;;;;;;;;;;;21.01;40.73;101104.66;5077770;28;1353;-67
2022/02/23 12:20:08;;;;;;;;;;;;;;;20.55;41.60;101107.09;5075265;28;1898;-68
2022/02/23 12:22:36;;;;;;;;;;;;;;;19.98;42.48;101107.66;5077478;28;1348;-66
2022/02/23 12:25:04;;;;;;;;;;;;;;;19.34;42.25;101110.25;5080356;28;1558;-65
2022/02/23 12:27:29;;;;;;;;;;;;;;;19.19;41.11;101113.06;5081127;28;1499;-59
2022/02/23 12:29:55;;;;;;;;;;;;;;;18.84;39.69;101104.63;5075776;28;1282;-62
2022/02/23 12:32:20;;;;;;;;;;;;;;;18.52;39.60;101114.09;5075057;28;1182;-69
2022/02/23 12:34:46;;;;;;;;;;;;;;;18.75;42.16;101103.59;5105533;28;1519;-65
2022/02/23 12:37:12;;;;;;;;;;;;;;;19.61;44.89;101106.22;5104613;28;1269;-64
2022/02/23 12:39:37;;;;;;;;;;;;;;;19.86;43.89;101099.72;5073976;28;1316;-62
2022/02/23 12:42:04;;;;;;;;;;;;;;;19.45;44.38;101103.56;5104155;28;1918;-62
2022/02/23 12:44:32;;;;;;;;;;;;;;;18.99;43.62;101092.78;5075049;28;1251;-62
2022/02/23 12:46:58;;;;;;;;;;;;;;;18.61;41.92;101097.84;5075983;28;1257;-66
2022/02/23 12:49:24;;;;;;;;;;;;;;;18.50;40.83;101104.47;5072909;28;1249;-66